Time;durP1;ratioP1;P1;durP2;ratioP2;P2;SDS_P1;SDS_P2;PMS_P1;PMS_P2;Temp;Humidity;BMP_temperature;BMP_pressure;BME280_temperature;BME280_humidity;BME280_pressure;Samples;Min_cycle;Max_cycle;Signal;HPM_P1;HPM_P2
2021/12/27 00:01:41;;;;;;;;;7.67;7.33;;;;;-147.17;100.00;49651.16;4955768;28;51674;-57
2021/12/27 00:04:07;;;;;;;;;5.00;5.00;;;;;-147.17;100.00;49619.66;4954897;28;51044;-58
2021/12/27 00:06:32;;;;;;;;;5.00;5.00;;;;;-147.17;100.00;49649.19;4960139;28;50975;-57
2021/12/27 00:08:58;;;;;;;;;4.00;4.00;;;;;-147.17;100.00;49651.16;4975611;28;51067;-57
2021/12/27 00:11:23;;;;;;;;;5.67;3.67;;;;;-147.17;100.00;49635.41;4973330;28;51915;-56
2021/12/27 00:13:49;;;;;;;;;5.67;5.00;;;;;-147.17;100.00;49657.06;4975049;28;50900;-58
2021/12/27 00:16:14;;;;;;;;;3.33;3.33;;;;;-147.17;100.00;49645.25;4972865;28;51617;-57
2021/12/27 00:18:40;;;;;;;;;5.00;5.00;;;;;-147.17;100.00;49668.84;4955223;28;51399;-57
2021/12/27 00:21:05;;;;;;;;;2.00;2.00;;;;;-147.17;100.00;49647.22;4955039;28;52868;-57
2021/12/27 00:23:31;;;;;;;;;3.00;3.00;;;;;-147.17;100.00;49631.47;4955411;28;50994;-57
2021/12/27 00:25:57;;;;;;;;;4.67;4.00;;;;;-147.17;100.00;49659.03;4970045;28;51419;-57
2021/12/27 00:28:22;;;;;;;;;4.00;3.50;;;;;-147.17;100.00;49635.41;4973633;28;51194;-58
2021/12/27 00:30:48;;;;;;;;;4.00;3.00;;;;;-147.17;100.00;49666.88;4955002;28;52777;-58
2021/12/27 00:33:13;;;;;;;;;4.33;3.00;;;;;-147.17;100.00;49647.22;4954195;28;51085;-57
2021/12/27 00:35:40;;;;;;;;;2.67;2.67;;;;;-147.17;100.00;49659.03;4954519;28;51044;-58
2021/12/27 00:38:05;;;;;;;;;5.67;4.00;;;;;-147.17;100.00;49639.34;4955398;28;51413;-58
2021/12/27 00:40:31;;;;;;;;;3.33;3.00;;;;;-147.17;100.00;49613.75;4954929;28;50989;-58
2021/12/27 00:42:56;;;;;;;;;4.00;3.67;;;;;-147.17;100.00;49627.53;4955172;28;51064;-58
2021/12/27 00:45:22;;;;;;;;;2.33;2.33;;;;;-147.17;100.00;49651.16;4955118;28;50981;-56
2021/12/27 00:47:49;;;;;;;;;2.33;2.00;;;;;-147.17;100.00;49637.38;4952296;28;51291;-56
2021/12/27 00:50:14;;;;;;;;;3.33;2.00;;;;;-147.17;100.00;49672.78;4965380;28;51304;-57
2021/12/27 00:52:40;;;;;;;;;5.00;3.33;;;;;-147.17;100.00;49611.78;4954570;28;51011;-57
2021/12/27 00:55:09;;;;;;;;;3.33;3.33;;;;;-147.17;100.00;49615.72;4955079;28;51119;-57
2021/12/27 00:57:35;;;;;;;;;4.00;2.00;;;;;-147.17;100.00;49641.31;4955037;28;50985;-57
2021/12/27 01:00:01;;;;;;;;;5.00;4.00;;;;;-147.17;100.00;49668.84;4954935;28;50986;-57
2021/12/27 01:02:26;;;;;;;;;2.00;2.00;;;;;-147.17;100.00;49651.16;4954546;28;51077;-57
2021/12/27 01:04:51;;;;;;;;;2.33;1.67;;;;;-147.17;100.00;49651.16;4957265;28;51765;-57
2021/12/27 01:07:17;;;;;;;;;3.00;2.33;;;;;-147.17;100.00;49647.22;4974361;28;50970;-57
2021/12/27 01:12:49;;;;;;;;;2.00;2.00;;;;;-147.17;100.00;49678.69;4973841;28;51097;-57
2021/12/27 01:17:45;;;;;;;;;1.67;1.33;;;;;-147.17;100.00;49623.59;4974577;28;51008;-58
2021/12/27 01:20:14;;;;;;;;;4.00;3.00;;;;;-147.17;100.00;49659.03;4973441;28;52864;-58
2021/12/27 01:22:40;;;;;;;;;4.00;2.00;;;;;-147.17;100.00;49625.56;4973470;28;50977;-58
2021/12/27 01:25:07;;;;;;;;;2.00;1.00;;;;;-147.17;100.00;49643.28;4973769;28;50936;-61
2021/12/27 01:27:34;;;;;;;;;3.00;2.33;;;;;-147.17;100.00;49662.94;4953506;28;51245;-58
2021/12/27 01:29:59;;;;;;;;;3.33;3.00;;;;;-147.17;100.00;49664.91;4968626;28;51152;-58
2021/12/27 01:32:29;;;;;;;;;1.33;1.33;;;;;-147.17;100.00;49664.91;4973979;28;51011;-58
2021/12/27 01:34:55;;;;;;;;;3.00;2.00;;;;;-147.17;100.00;49670.81;4973539;28;50991;-58
2021/12/27 01:37:21;;;;;;;;;2.00;2.00;;;;;-147.17;100.00;49659.03;4973953;28;51251;-58
2021/12/27 01:39:46;;;;;;;;;1.33;1.33;;;;;-147.17;100.00;49670.81;4973592;28;51046;-58
2021/12/27 01:42:11;;;;;;;;;2.00;2.00;;;;;-147.17;100.00;49633.44;4974022;28;51015;-58
2021/12/27 01:44:38;;;;;;;;;3.00;3.00;;;;;-147.17;100.00;49649.19;4973992;28;51032;-59
2021/12/27 01:47:06;;;;;;;;;2.67;2.00;;;;;-147.17;100.00;49664.91;4974055;28;51049;-58
2021/12/27 01:49:32;;;;;;;;;2.00;1.00;;;;;-147.17;100.00;49680.66;4971794;28;52309;-58
2021/12/27 01:51:57;;;;;;;;;3.00;2.33;;;;;-147.17;100.00;49670.81;4973599;28;50981;-58
2021/12/27 01:54:22;;;;;;;;;4.00;3.00;;;;;-147.17;100.00;49659.03;4973535;28;50917;-57
2021/12/27 01:56:51;;;;;;;;;4.00;2.00;;;;;-147.17;100.00;49643.28;4973902;28;51091;-57
2021/12/27 01:59:17;;;;;;;;;2.33;2.00;;;;;-147.17;100.00;49662.94;4973231;28;52945;-58
2021/12/27 02:01:42;;;;;;;;;2.33;2.00;;;;;-147.17;100.00;49647.22;4973566;28;51047;-57
2021/12/27 02:04:08;;;;;;;;;4.00;4.00;;;;;-147.17;100.00;49643.28;4973135;28;51083;-58
2021/12/27 02:06:33;;;;;;;;;2.00;2.00;;;;;-147.17;100.00;49635.41;4972879;28;51177;-58
2021/12/27 02:08:58;;;;;;;;;3.00;2.00;;;;;-147.17;100.00;49666.88;4971992;28;52958;-58
2021/12/27 02:11:24;;;;;;;;;1.33;1.00;;;;;-147.17;100.00;49660.97;4973368;28;51042;-57
2021/12/27 02:13:49;;;;;;;;;2.00;2.00;;;;;-147.17;100.00;49645.25;4973775;28;51282;-57
2021/12/27 02:16:20;;;;;;;;;2.00;2.00;;;;;-147.17;100.00;49657.06;4973614;28;51053;-57
2021/12/27 02:18:46;;;;;;;;;2.33;2.00;;;;;-147.17;100.00;49637.38;4971655;28;53181;-57
2021/12/27 02:21:13;;;;;;;;;2.67;2.33;;;;;-147.17;100.00;49670.81;4973336;28;51395;-57
2021/12/27 02:23:40;;;;;;;;;2.00;2.00;;;;;-147.17;100.00;49631.47;4973562;28;51110;-57
2021/12/27 02:26:07;;;;;;;;;2.00;2.00;;;;;-147.17;100.00;49631.47;4973119;28;50993;-57
2021/12/27 02:28:32;;;;;;;;;1.33;1.33;;;;;-147.17;100.00;49619.66;4970130;28;51738;-58
2021/12/27 02:30:58;;;;;;;;;2.00;2.00;;;;;-147.17;100.00;49657.06;4953478;28;51096;-58
2021/12/27 02:33:23;;;;;;;;;1.33;1.33;;;;;-147.17;100.00;49662.94;4953568;28;51120;-58
2021/12/27 02:35:57;;;;;;;;;2.00;2.00;;;;;-147.17;100.00;49660.97;4957337;28;51234;-58
2021/12/27 02:38:29;;;;;;;;;2.33;2.00;;;;;-147.17;100.00;49653.13;4955830;28;52735;-57
2021/12/27 02:40:56;;;;;;;;;2.00;2.00;;;;;-147.17;100.00;49647.22;4957041;28;51140;-58
2021/12/27 02:43:24;;;;;;;;;3.00;3.00;;;;;-147.17;100.00;49645.25;4957217;28;50956;-58
2021/12/27 02:45:53;;;;;;;;;3.00;3.00;;;;;-147.17;100.00;49637.38;4956866;28;51230;-57
2021/12/27 02:48:21;;;;;;;;;3.67;2.33;;;;;-147.17;100.00;49653.13;4956576;28;51015;-58
2021/12/27 02:50:48;;;;;;;;;2.00;2.00;;;;;-147.17;100.00;49627.53;4970443;28;50925;-58
2021/12/27 02:53:15;;;;;;;;;3.67;3.67;;;;;-147.17;100.00;49623.59;4976329;28;51092;-58
2021/12/27 02:55:40;;;;;;;;;2.00;2.00;;;;;-147.17;100.00;49598.00;4976344;28;51279;-57
2021/12/27 02:58:06;;;;;;;;;2.00;2.00;;;;;-147.17;100.00;49666.88;4976029;28;52823;-57
2021/12/27 03:00:42;;;;;;;;;4.00;3.33;;;;;-147.17;100.00;49686.56;4976112;28;51048;-57
2021/12/27 03:03:08;;;;;;;;;3.00;3.00;;;;;-147.17;100.00;49633.44;4976238;28;51086;-57
2021/12/27 03:05:33;;;;;;;;;4.00;4.00;;;;;-147.17;100.00;49664.91;4975951;28;50967;-57
2021/12/27 03:07:59;;;;;;;;;3.33;3.33;;;;;-147.17;100.00;49662.94;4975759;28;51014;-57
2021/12/27 03:10:31;;;;;;;;;3.00;3.00;;;;;-147.17;100.00;49657.06;4975830;28;51152;-57
2021/12/27 03:12:59;;;;;;;;;2.00;2.00;;;;;-147.17;100.00;49635.41;4974965;28;51027;-58
2021/12/27 03:15:25;;;;;;;;;4.67;4.00;;;;;-147.17;100.00;49659.03;4975969;28;51298;-57
2021/12/27 03:17:53;;;;;;;;;7.00;4.33;;;;;-147.17;100.00;49637.38;4975824;28;51867;-57
2021/12/27 03:20:21;;;;;;;;;2.00;2.00;;;;;-147.17;100.00;49659.03;4975496;28;50897;-58
2021/12/27 03:22:47;;;;;;;;;3.00;3.00;;;;;-147.17;100.00;49659.03;4974646;28;51153;-58
2021/12/27 03:25:16;;;;;;;;;2.00;2.00;;;;;-147.17;100.00;49651.16;4975912;28;51045;-58
2021/12/27 03:27:42;;;;;;;;;3.00;3.00;;;;;-147.17;100.00;49666.88;4974240;28;51658;-58
2021/12/27 03:30:13;;;;;;;;;3.00;3.00;;;;;-147.17;100.00;49666.88;4975517;28;50941;-57
2021/12/27 03:32:38;;;;;;;;;4.67;3.67;;;;;-147.17;100.00;49655.09;4975650;28;51131;-58
2021/12/27 03:35:14;;;;;;;;;3.67;2.00;;;;;-147.17;100.00;49686.56;4975383;28;51109;-58
2021/12/27 03:37:43;;;;;;;;;4.00;4.00;;;;;-147.17;100.00;49657.06;4959605;28;51211;-58
2021/12/27 03:40:11;;;;;;;;;3.00;3.00;;;;;-147.17;100.00;49660.97;4975264;28;50929;-58
2021/12/27 03:42:38;;;;;;;;;4.00;3.00;;;;;-147.17;100.00;49674.75;4975626;28;51082;-58
2021/12/27 03:45:05;;;;;;;;;3.00;3.00;;;;;-147.17;100.00;49694.44;4975379;28;50996;-58
2021/12/27 03:47:31;;;;;;;;;5.67;4.33;;;;;-147.17;100.00;49670.81;4975249;28;51754;-58
2021/12/27 03:49:56;;;;;;;;;3.33;3.33;;;;;-147.17;100.00;49670.81;4974954;28;51015;-58
2021/12/27 03:52:21;;;;;;;;;4.67;4.00;;;;;-147.17;100.00;49720.03;4973712;28;51041;-58
2021/12/27 03:54:47;;;;;;;;;2.33;2.33;;;;;-147.17;100.00;49708.22;4975738;28;51276;-58
2021/12/27 03:57:15;;;;;;;;;3.33;3.33;;;;;-147.17;100.00;49666.88;4973294;28;53040;-58
2021/12/27 04:02:13;;;;;;;;;4.00;3.00;;;;;-147.17;100.00;49674.75;4970872;28;51174;-58
2021/12/27 04:04:40;;;;;;;;;4.67;4.00;;;;;-147.17;100.00;49676.72;4974080;28;51198;-58
2021/12/27 04:07:07;;;;;;;;;5.67;5.00;;;;;-147.17;100.00;49702.31;4973798;28;51289;-58
2021/12/27 04:09:34;;;;;;;;;4.00;3.67;;;;;-147.17;100.00;49682.63;4975076;28;51058;-59
2021/12/27 04:11:59;;;;;;;;;3.00;2.00;;;;;-147.17;100.00;49714.13;4974990;28;51378;-59
2021/12/27 04:14:28;;;;;;;;;3.67;3.67;;;;;-147.17;100.00;49670.81;4975323;28;51232;-59
2021/12/27 04:16:54;;;;;;;;;4.33;3.67;;;;;-147.17;100.00;49682.63;4974893;28;50969;-58
2021/12/27 04:19:20;;;;;;;;;3.00;3.00;;;;;-147.17;100.00;49722.00;4974892;28;50941;-58
2021/12/27 04:21:45;;;;;;;;;5.00;5.00;;;;;-147.17;100.00;49672.78;4972937;28;50860;-58
2021/12/27 04:24:11;;;;;;;;;5.00;4.67;;;;;-147.17;100.00;49720.03;4956456;28;51041;-57
2021/12/27 04:26:36;;;;;;;;;4.33;4.33;;;;;-147.17;100.00;49688.53;4974640;28;51442;-58
2021/12/27 04:29:02;;;;;;;;;5.33;4.00;;;;;-147.17;100.00;49710.19;4968055;28;51123;-66
2021/12/27 04:31:28;;;;;;;;;6.00;4.00;;;;;-147.17;100.00;49710.19;4970539;28;51007;-59
2021/12/27 04:33:53;;;;;;;;;5.33;4.00;;;;;-147.17;100.00;49690.50;4974747;28;51296;-58
2021/12/27 04:36:18;;;;;;;;;4.00;4.00;;;;;-147.17;100.00;49712.16;4973216;28;53056;-58
2021/12/27 04:38:44;;;;;;;;;7.00;4.33;;;;;-147.17;100.00;49698.38;4974618;28;51018;-58
2021/12/27 04:41:12;;;;;;;;;1.00;1.00;;;;;-147.17;100.00;49662.94;4974645;28;51048;-58
2021/12/27 04:43:38;;;;;;;;;3.33;3.00;;;;;-147.17;100.00;49725.94;4974954;28;51397;-59
2021/12/27 04:46:04;;;;;;;;;5.00;5.00;;;;;-147.17;100.00;49680.66;4974241;28;50985;-62
2021/12/27 04:48:30;;;;;;;;;4.00;4.00;;;;;-147.17;100.00;49678.69;4974281;28;50921;-58
2021/12/27 04:50:56;;;;;;;;;3.00;3.00;;;;;-147.17;100.00;49704.28;4962805;28;51355;-58
2021/12/27 04:53:22;;;;;;;;;5.00;4.00;;;;;-147.17;100.00;49729.88;4972050;28;51139;-58
2021/12/27 04:55:48;;;;;;;;;5.67;4.67;;;;;-147.17;100.00;49690.50;4974338;28;51736;-58
2021/12/27 04:58:18;;;;;;;;;3.00;3.00;;;;;-147.17;100.00;49714.13;4973556;28;50971;-58
2021/12/27 05:00:44;;;;;;;;;4.00;3.67;;;;;-147.17;100.00;49722.00;4974573;28;51094;-58
2021/12/27 05:03:10;;;;;;;;;4.00;3.00;;;;;-147.17;100.00;49739.72;4973046;28;51215;-57
2021/12/27 05:05:37;;;;;;;;;5.00;3.33;;;;;-147.17;100.00;49753.50;4963531;28;51970;-57
2021/12/27 05:08:03;;;;;;;;;3.00;3.00;;;;;-147.17;100.00;49712.16;4954795;28;51231;-58
2021/12/27 05:10:30;;;;;;;;;4.00;4.00;;;;;-147.17;100.00;49714.13;4953510;28;51141;-58
2021/12/27 05:12:56;;;;;;;;;4.00;4.00;;;;;-147.17;100.00;49729.88;4954748;28;51165;-57
2021/12/27 05:15:22;;;;;;;;;4.00;3.67;;;;;-147.17;100.00;49702.31;4954447;28;52079;-58
2021/12/27 05:17:47;;;;;;;;;8.33;8.00;;;;;-147.17;100.00;49696.41;4954631;28;50977;-56
2021/12/27 05:20:13;;;;;;;;;5.00;4.00;;;;;-147.17;100.00;49694.44;4954666;28;51168;-57
2021/12/27 05:22:40;;;;;;;;;4.33;4.33;;;;;-147.17;100.00;49690.50;4954788;28;50848;-58
2021/12/27 05:25:07;;;;;;;;;4.33;4.00;;;;;-147.17;100.00;49704.28;4962398;28;52937;-58
2021/12/27 05:27:32;;;;;;;;;5.00;5.00;;;;;-147.17;100.00;49720.03;4972299;28;51265;-58
2021/12/27 05:29:58;;;;;;;;;4.33;4.00;;;;;-147.17;100.00;49702.31;4974026;28;51131;-57
2021/12/27 05:32:23;;;;;;;;;6.00;4.00;;;;;-147.17;100.00;49688.53;4974261;28;50934;-58
2021/12/27 05:34:48;;;;;;;;;7.00;6.00;;;;;-147.17;100.00;49690.50;4973308;28;51712;-57
2021/12/27 05:37:14;;;;;;;;;4.67;3.33;;;;;-147.17;100.00;49716.09;4974087;28;51113;-57
2021/12/27 05:39:40;;;;;;;;;6.00;4.00;;;;;-147.17;100.00;49722.00;4973895;28;50987;-57
2021/12/27 05:42:06;;;;;;;;;5.00;4.00;;;;;-147.17;100.00;49702.31;4974197;28;51069;-57
2021/12/27 05:44:31;;;;;;;;;6.00;5.00;;;;;-147.17;100.00;49702.31;4972204;28;51174;-56
2021/12/27 05:46:57;;;;;;;;;5.33;5.00;;;;;-147.17;100.00;49716.09;4973673;28;51075;-57
2021/12/27 05:49:24;;;;;;;;;5.33;4.33;;;;;-147.17;100.00;49694.44;4973223;28;50898;-57
2021/12/27 05:51:50;;;;;;;;;6.00;5.67;;;;;-147.17;100.00;49718.06;4973836;28;51241;-57
2021/12/27 05:54:16;;;;;;;;;5.33;5.00;;;;;-147.17;100.00;49666.88;4972459;28;52618;-58
2021/12/27 05:56:43;;;;;;;;;7.00;6.00;;;;;-147.17;100.00;49698.38;4973585;28;50931;-58
2021/12/27 05:59:09;;;;;;;;;5.33;4.33;;;;;-147.17;100.00;49714.13;4973410;28;51185;-57
2021/12/27 06:01:35;;;;;;;;;6.00;6.00;;;;;-147.17;100.00;49710.19;4972279;28;50957;-58
2021/12/27 06:04:01;;;;;;;;;7.67;7.00;;;;;-147.17;100.00;49710.19;4972922;28;51126;-56
2021/12/27 06:06:26;;;;;;;;;6.33;5.00;;;;;-147.17;100.00;49694.44;4973573;28;50984;-58
2021/12/27 06:08:52;;;;;;;;;9.67;8.33;;;;;-147.17;100.00;49694.44;4975683;28;51063;-58
2021/12/27 06:11:18;;;;;;;;;8.67;8.33;;;;;-147.17;100.00;49702.31;4977097;28;51082;-58
2021/12/27 06:13:44;;;;;;;;;8.00;6.67;;;;;-147.17;100.00;49694.44;4975265;28;51693;-57
2021/12/27 06:16:10;;;;;;;;;11.67;9.00;;;;;-147.17;100.00;49694.44;4976934;28;50925;-57
2021/12/27 06:18:36;;;;;;;;;11.00;7.67;;;;;-147.17;100.00;49722.00;4976418;28;51040;-57
2021/12/27 06:21:02;;;;;;;;;7.00;6.33;;;;;-147.17;100.00;49716.09;4977196;28;50929;-57
2021/12/27 06:23:27;;;;;;;;;6.00;5.00;;;;;-147.17;100.00;49743.66;4976401;28;52008;-58
2021/12/27 06:25:53;;;;;;;;;6.67;6.00;;;;;-147.17;100.00;49733.81;4976352;28;50944;-57
2021/12/27 06:28:18;;;;;;;;;7.00;6.33;;;;;-147.17;100.00;49731.84;4975615;28;51222;-57
2021/12/27 06:30:44;;;;;;;;;7.00;6.33;;;;;-147.17;100.00;49720.03;4957511;28;51148;-57
2021/12/27 06:33:10;;;;;;;;;6.33;6.00;;;;;-147.17;100.00;49718.06;4955424;28;51896;-57
2021/12/27 06:35:36;;;;;;;;;8.33;7.33;;;;;-147.17;100.00;49718.06;4956291;28;51069;-57
2021/12/27 06:38:01;;;;;;;;;7.00;6.00;;;;;-147.17;100.00;49725.94;4956931;28;51399;-57
2021/12/27 06:40:27;;;;;;;;;7.00;6.00;;;;;-147.17;100.00;49737.75;4957175;28;51119;-57
2021/12/27 06:42:52;;;;;;;;;6.67;6.33;;;;;-147.17;100.00;49741.69;4956640;28;52067;-57
2021/12/27 06:45:18;;;;;;;;;6.00;6.00;;;;;-147.17;100.00;49733.81;4956949;28;50937;-57
2021/12/27 06:47:43;;;;;;;;;9.00;7.67;;;;;-147.17;100.00;49714.13;4955602;28;51177;-56
2021/12/27 06:50:10;;;;;;;;;8.67;7.00;;;;;-147.17;100.00;49761.38;4956749;28;50861;-57
2021/12/27 06:52:36;;;;;;;;;8.67;8.67;;;;;-147.17;100.00;49725.94;4968279;28;51306;-57
2021/12/27 06:55:02;;;;;;;;;8.00;6.67;;;;;-147.17;100.00;49731.84;4975015;28;51052;-57
2021/12/27 06:57:27;;;;;;;;;10.00;9.67;;;;;-147.17;100.00;49763.34;4975996;28;51157;-57
2021/12/27 06:59:52;;;;;;;;;7.33;7.33;;;;;-147.17;100.00;49767.28;4976630;28;51006;-57
2021/12/27 07:02:18;;;;;;;;;8.33;6.33;;;;;-147.17;100.00;49769.25;4974345;28;52190;-57
2021/12/27 07:04:43;;;;;;;;;6.00;6.00;;;;;-147.17;100.00;49763.34;4975969;28;51036;-57
2021/12/27 07:07:09;;;;;;;;;6.00;6.00;;;;;-147.17;100.00;49737.75;4975982;28;51253;-57
2021/12/27 07:09:34;;;;;;;;;6.67;6.67;;;;;-147.17;100.00;49745.63;4976226;28;51142;-57
2021/12/27 07:12:00;;;;;;;;;8.33;7.00;;;;;-147.17;100.00;49751.53;4975580;28;50933;-57
2021/12/27 07:14:26;;;;;;;;;7.33;7.33;;;;;-147.17;100.00;49771.22;4975992;28;50879;-57
2021/12/27 07:16:51;;;;;;;;;7.00;6.00;;;;;-147.17;100.00;49753.50;4975777;28;51169;-57
2021/12/27 07:19:17;;;;;;;;;9.33;8.33;;;;;-147.17;100.00;49718.06;4975331;28;51352;-57
2021/12/27 07:21:42;;;;;;;;;6.00;6.00;;;;;-147.17;100.00;49733.81;4975440;28;51008;-58
2021/12/27 07:24:08;;;;;;;;;7.67;6.67;;;;;-147.17;100.00;49769.25;4975717;28;50987;-58
2021/12/27 07:26:33;;;;;;;;;10.00;6.00;;;;;-147.17;100.00;49761.38;4975520;28;50869;-58
2021/12/27 07:28:59;;;;;;;;;6.00;6.00;;;;;-147.17;100.00;49745.63;4975848;28;51094;-58
2021/12/27 07:31:24;;;;;;;;;6.33;6.33;;;;;-147.17;100.00;49741.69;4975494;28;52013;-57
2021/12/27 07:33:50;;;;;;;;;8.33;7.67;;;;;-147.17;100.00;49753.50;4974978;28;50987;-57
2021/12/27 07:36:16;;;;;;;;;5.00;5.00;;;;;-147.17;100.00;49790.88;4975555;28;51322;-57
2021/12/27 07:38:43;;;;;;;;;6.00;5.33;;;;;-147.17;100.00;49759.41;4974212;28;50962;-57
2021/12/27 07:41:09;;;;;;;;;6.00;6.00;;;;;-147.17;100.00;49749.56;4973902;28;51817;-57
2021/12/27 07:43:35;;;;;;;;;7.33;6.67;;;;;-147.17;100.00;49751.53;4975309;28;51102;-57
2021/12/27 07:46:01;;;;;;;;;6.00;5.00;;;;;-147.17;100.00;49773.19;4975235;28;51014;-58
2021/12/27 07:48:26;;;;;;;;;5.67;5.67;;;;;-147.17;100.00;49788.91;4975126;28;51032;-57
2021/12/27 07:50:52;;;;;;;;;4.00;4.00;;;;;-147.17;100.00;49755.47;4974963;28;51972;-58
2021/12/27 07:53:18;;;;;;;;;5.00;4.00;;;;;-147.17;100.00;49751.53;4974624;28;53959;-59
2021/12/27 07:55:43;;;;;;;;;4.00;3.33;;;;;-147.17;100.00;49759.41;4974956;28;51090;-58
2021/12/27 07:58:08;;;;;;;;;6.00;5.33;;;;;-147.17;100.00;49777.13;4974307;28;50941;-58
2021/12/27 08:00:34;;;;;;;;;6.00;6.00;;;;;-147.17;100.00;49765.31;4975292;28;50892;-58
2021/12/27 08:02:59;;;;;;;;;9.00;9.00;;;;;-147.17;100.00;49745.63;4975152;28;50948;-58
2021/12/27 08:05:25;;;;;;;;;5.33;4.33;;;;;-147.17;100.00;49792.84;4975109;28;51038;-59
2021/12/27 08:07:51;;;;;;;;;6.00;5.00;;;;;-147.17;100.00;49808.59;4975363;28;50917;-57
2021/12/27 08:10:16;;;;;;;;;6.00;5.67;;;;;-147.17;100.00;49788.91;4974645;28;50857;-57
2021/12/27 08:12:43;;;;;;;;;6.00;6.00;;;;;-147.17;100.00;49792.84;4955657;28;50894;-58
2021/12/27 08:15:10;;;;;;;;;2.00;2.00;;;;;-147.17;100.00;49802.69;4955524;28;51116;-58
2021/12/27 08:17:36;;;;;;;;;4.33;3.67;;;;;-147.17;100.00;49767.28;4962307;28;51192;-58
2021/12/27 08:20:06;;;;;;;;;6.67;5.67;;;;;-147.17;100.00;49790.88;4974312;28;53692;-58
2021/12/27 08:22:32;;;;;;;;;6.00;5.00;;;;;-147.17;100.00;49790.88;4974912;28;51144;-58
2021/12/27 08:24:58;;;;;;;;;3.00;3.00;;;;;-147.17;100.00;49792.84;4974430;28;51125;-58
2021/12/27 08:27:26;;;;;;;;;7.33;5.67;;;;;-147.17;100.00;49761.38;4974616;28;50970;-58
2021/12/27 08:29:51;;;;;;;;;3.00;3.00;;;;;-147.17;100.00;49794.81;4960895;28;52015;-58
2021/12/27 08:32:18;;;;;;;;;4.00;4.00;;;;;-147.17;100.00;49836.16;4953970;28;51084;-58
2021/12/27 08:34:44;;;;;;;;;7.50;5.50;;;;;-147.17;100.00;49788.91;4954667;28;51088;-58
2021/12/27 08:37:09;;;;;;;;;5.33;5.00;;;;;-147.17;100.00;49808.59;4954003;28;50947;-58
2021/12/27 08:39:35;;;;;;;;;4.67;3.00;;;;;-147.17;100.00;49798.75;4953378;28;51193;-58
2021/12/27 08:42:02;;;;;;;;;6.33;4.00;;;;;-147.17;100.00;49808.59;4954166;28;51004;-58
2021/12/27 08:44:27;;;;;;;;;5.00;5.00;;;;;-147.17;100.00;49808.59;4937586;28;51058;-58
2021/12/27 08:46:53;;;;;;;;;5.67;4.00;;;;;-147.17;100.00;49761.38;4954964;28;51079;-58
2021/12/27 08:49:18;;;;;;;;;5.00;4.33;;;;;-147.17;100.00;49824.34;4954199;28;51126;-58
2021/12/27 08:51:44;;;;;;;;;6.00;6.00;;;;;-147.17;100.00;49828.28;4953652;28;51222;-58
2021/12/27 08:54:09;;;;;;;;;4.00;4.00;;;;;-147.17;100.00;49826.31;4969564;28;51272;-58
2021/12/27 08:56:38;;;;;;;;;5.33;4.67;;;;;-147.17;100.00;49818.44;4974308;28;51124;-58
2021/12/27 08:59:04;;;;;;;;;3.00;3.00;;;;;-147.17;100.00;49814.50;4974366;28;51898;-58
2021/12/27 09:01:30;;;;;;;;;7.33;6.67;;;;;-147.17;100.00;49800.72;4974285;28;50984;-58
2021/12/27 09:03:55;;;;;;;;;5.00;4.33;;;;;-147.17;100.00;49822.38;4973884;28;51118;-58
2021/12/27 09:06:21;;;;;;;;;8.00;5.00;;;;;-147.17;100.00;49773.19;4974032;28;51082;-58
2021/12/27 09:08:46;;;;;;;;;5.00;5.00;;;;;-147.17;100.00;49800.72;4973769;28;51691;-58
2021/12/27 09:11:11;;;;;;;;;4.00;4.00;;;;;-147.17;100.00;49800.72;4972780;28;50949;-58
2021/12/27 09:13:37;;;;;;;;;4.00;3.00;;;;;-147.17;100.00;49798.75;4974345;28;50940;-58
2021/12/27 09:16:03;;;;;;;;;3.00;3.00;;;;;-147.17;100.00;49816.47;4974151;28;50928;-56
2021/12/27 09:18:31;;;;;;;;;5.67;5.67;;;;;-147.17;100.00;49784.97;4973573;28;51982;-59
2021/12/27 09:20:57;;;;;;;;;11.00;9.33;;;;;-147.17;100.00;49808.59;4973847;28;51152;-58
2021/12/27 09:23:22;;;;;;;;;5.00;4.67;;;;;-147.17;100.00;49777.13;4973878;28;50974;-58
2021/12/27 09:25:48;;;;;;;;;5.33;5.00;;;;;-147.17;100.00;49773.19;4973740;28;50910;-58
2021/12/27 09:28:14;;;;;;;;;4.00;4.00;;;;;-147.17;100.00;49814.50;4972899;28;52750;-58
2021/12/27 09:30:40;;;;;;;;;4.00;4.00;;;;;-147.17;100.00;49796.78;4954254;28;50930;-58
2021/12/27 09:33:05;;;;;;;;;5.00;5.00;;;;;-147.17;100.00;49796.78;4954124;28;50928;-57
2021/12/27 09:35:32;;;;;;;;;3.33;3.33;;;;;-147.17;100.00;49753.50;4954241;28;51226;-57
2021/12/27 09:37:58;;;;;;;;;3.33;3.33;;;;;-147.17;100.00;49767.28;4953898;28;52946;-57
2021/12/27 09:40:23;;;;;;;;;5.00;5.00;;;;;-147.17;100.00;49784.97;4954086;28;51090;-58
2021/12/27 09:42:49;;;;;;;;;4.33;4.33;;;;;-147.17;100.00;49800.72;4953564;28;51298;-57
2021/12/27 09:45:15;;;;;;;;;4.00;4.00;;;;;-147.17;100.00;49777.13;4954123;28;51057;-55
2021/12/27 09:47:42;;;;;;;;;4.00;4.00;;;;;-147.17;100.00;49765.31;4953553;28;52154;-58
2021/12/27 09:50:12;;;;;;;;;4.00;3.33;;;;;-147.17;100.00;49800.72;4953124;28;51011;-58
2021/12/27 09:52:38;;;;;;;;;4.00;4.00;;;;;-147.17;100.00;49822.38;4960799;28;51149;-57
2021/12/27 09:55:05;;;;;;;;;3.00;3.00;;;;;-147.17;100.00;49786.94;4972351;28;51365;-58
2021/12/27 09:57:31;;;;;;;;;4.00;4.00;;;;;-147.17;100.00;49769.25;4972856;28;51176;-57
2021/12/27 09:59:57;;;;;;;;;3.67;3.67;;;;;-147.17;100.00;49761.38;4973091;28;51050;-58
2021/12/27 10:02:24;;;;;;;;;5.67;5.67;;;;;-147.17;100.00;49783.03;4971784;28;51021;-58
2021/12/27 10:04:50;;;;;;;;;8.00;6.00;;;;;-147.17;100.00;49765.31;4973300;28;51139;-58
2021/12/27 10:07:22;;;;;;;;;4.00;4.00;;;;;-147.17;100.00;49773.19;4972806;28;51674;-57
2021/12/27 10:09:58;;;;;;;;;3.67;3.67;;;;;-147.17;100.00;49741.69;4973203;28;50937;-57
2021/12/27 10:12:23;;;;;;;;;5.33;5.00;;;;;-147.17;100.00;49745.63;4972561;28;51323;-57
2021/12/27 10:14:57;;;;;;;;;6.00;5.00;;;;;-147.17;100.00;49747.59;4973051;28;50923;-57
2021/12/27 10:17:23;;;;;;;;;3.00;3.00;;;;;-147.17;100.00;49733.81;4972564;28;51118;-57
2021/12/27 10:19:49;;;;;;;;;4.00;3.33;;;;;-147.17;100.00;49712.16;4972495;28;51101;-57
2021/12/27 10:22:15;;;;;;;;;5.00;5.00;;;;;-147.17;100.00;49678.69;4972731;28;51060;-57
2021/12/27 10:24:41;;;;;;;;;5.00;5.00;;;;;-147.17;100.00;49733.81;4972576;28;50818;-57
2021/12/27 10:27:07;;;;;;;;;3.00;3.00;;;;;-147.17;100.00;49702.31;4972113;28;52306;-58
2021/12/27 10:29:38;;;;;;;;;3.00;3.00;;;;;-147.17;100.00;49718.06;4973033;28;51101;-58
2021/12/27 10:32:13;;;;;;;;;4.67;3.67;;;;;-147.17;100.00;49714.13;4972583;28;51149;-58
2021/12/27 10:34:39;;;;;;;;;4.00;3.00;;;;;-147.17;100.00;49725.94;4971360;28;50979;-57
2021/12/27 10:37:22;;;;;;;;;5.00;5.00;;;;;-147.17;100.00;49700.34;4972350;28;51219;-58
2021/12/27 10:39:55;;;;;;;;;6.00;5.00;;;;;-147.17;100.00;49727.91;4972528;28;51038;-57
2021/12/27 10:42:31;;;;;;;;;5.00;5.00;;;;;-147.17;100.00;49725.94;4972839;28;51050;-57
2021/12/27 10:45:03;;;;;;;;;6.00;6.00;;;;;-147.17;100.00;49710.19;4972932;28;51140;-57
2021/12/27 10:47:43;;;;;;;;;4.00;4.00;;;;;-147.17;100.00;49731.84;4972400;28;53120;-57
2021/12/27 10:50:12;;;;;;;;;3.33;3.33;;;;;-147.17;100.00;49737.75;4972312;28;51063;-58
2021/12/27 10:52:40;;;;;;;;;4.00;3.67;;;;;-147.17;100.00;49727.91;4971757;28;50953;-57
2021/12/27 10:55:06;;;;;;;;;4.67;4.00;;;;;-147.17;100.00;49718.06;4963856;28;51371;-58
2021/12/27 10:57:32;;;;;;;;;6.00;6.00;;;;;-147.17;100.00;49735.78;4962084;28;52273;-58
2021/12/27 11:00:14;;;;;;;;;4.00;3.33;;;;;-147.17;100.00;49725.94;4956316;28;50995;-59
2021/12/27 11:02:40;;;;;;;;;6.67;5.67;;;;;-147.17;100.00;49737.75;4954782;28;51029;-58
2021/12/27 11:05:14;;;;;;;;;4.67;4.67;;;;;-147.17;100.00;49722.00;4954651;28;51307;-58
2021/12/27 11:07:41;;;;;;;;;4.33;4.33;;;;;-147.17;100.00;49725.94;4955955;28;51839;-58
2021/12/27 11:10:06;;;;;;;;;5.00;5.00;;;;;-147.17;100.00;49718.06;4956042;28;51024;-59
2021/12/27 11:12:32;;;;;;;;;4.67;4.67;;;;;-147.17;100.00;49698.38;4955756;28;51016;-57
2021/12/27 11:14:58;;;;;;;;;4.00;4.00;;;;;-147.17;100.00;49639.34;4956111;28;51048;-58